Time;durP1;ratioP1;P1;durP2;ratioP2;P2;SDS_P1;SDS_P2;PMS_P1;PMS_P2;Temp;Humidity;BMP_temperature;BMP_pressure;BME280_temperature;BME280_humidity;BME280_pressure;Samples;Min_cycle;Max_cycle;Signal;HPM_P1;HPM_P2
2021/11/02 00:01:20;;;;;;;77.35;53.73;;;;;;;6.65;94.84;143895.63;1827665;78;28009;-57
2021/11/02 00:04:14;;;;;;;80.25;50.38;;;;;;;6.71;94.86;143909.38;1834908;77;22128;-59
2021/11/02 00:07:08;;;;;;;83.60;51.15;;;;;;;6.69;94.81;143905.66;1853415;77;22156;-62
2021/11/02 00:09:51;;;;;;;86.47;52.05;;;;;;;6.69;94.80;143905.66;1853457;77;22199;-59
2021/11/02 00:12:27;;;;;;;80.83;48.70;;;;;;;6.71;94.79;143910.62;1834942;77;22239;-62
2021/11/02 00:15:02;;;;;;;84.80;51.98;;;;;;;6.71;94.73;143909.38;1853503;77;22128;-60
2021/11/02 00:17:38;;;;;;;88.40;51.05;;;;;;;6.71;94.69;143910.62;1834927;77;22579;-60
2021/11/02 00:20:37;;;;;;;84.22;52.00;;;;;;;6.71;94.62;143909.38;1834693;77;22197;-60
2021/11/02 00:23:38;;;;;;;82.02;51.33;;;;;;;6.68;94.70;143903.13;1853495;77;22128;-62
2021/11/02 00:26:14;;;;;;;88.80;52.55;;;;;;;6.67;94.75;143900.64;1834927;77;22573;-61
2021/11/02 00:28:49;;;;;;;78.90;54.10;;;;;;;6.63;94.89;143889.37;1819325;77;28457;-59
2021/11/02 00:31:24;;;;;;;73.00;51.83;;;;;;;6.64;94.88;143893.16;1819284;77;27990;-61
2021/11/02 00:34:19;;;;;;;86.53;50.48;;;;;;;6.70;94.81;143908.12;1844978;77;22253;-64
2021/11/02 00:36:55;;;;;;;77.97;53.75;;;;;;;6.71;94.80;143910.62;1819286;77;27996;-63
2021/11/02 00:39:30;;;;;;;72.70;52.25;;;;;;;6.80;94.69;143930.66;1819351;77;28517;-61
2021/11/02 00:42:06;;;;;;;79.70;50.08;;;;;;;6.90;94.47;143955.67;1834910;77;22168;-60
2021/11/02 00:44:44;;;;;;;77.85;54.85;;;;;;;6.90;94.22;143956.91;1837724;77;27994;-61
2021/11/02 00:47:22;;;;;;;72.72;49.05;;;;;;;6.99;93.93;143976.91;1834893;77;22133;-60
2021/11/02 00:49:55;;;;;;;80.47;50.67;;;;;;;6.98;93.72;143975.66;1834883;77;22160;-59
2021/11/02 00:52:50;;;;;;;76.97;49.23;;;;;;;7.01;93.69;143981.91;1834793;77;22187;-59
2021/11/02 00:55:25;;;;;;;82.00;53.63;;;;;;;7.01;93.55;143983.16;1819353;77;27971;-61
2021/11/02 00:58:05;;;;;;;72.32;52.85;;;;;;;7.07;93.53;143998.19;1837743;77;28000;-62
2021/11/02 01:00:58;;;;;;;74.50;48.65;;;;;;;7.14;93.30;144015.66;1853474;77;22183;-57
2021/11/02 01:03:53;;;;;;;77.05;49.23;;;;;;;7.10;93.04;144005.69;1853483;77;22586;-59
2021/11/02 01:06:28;;;;;;;83.97;49.85;;;;;;;7.04;93.04;143990.66;1834916;77;22543;-59
2021/11/02 01:09:06;;;;;;;83.62;51.65;;;;;;;7.01;93.14;143981.91;1853606;77;22155;-59
2021/11/02 01:11:41;;;;;;;79.62;49.33;;;;;;;7.00;93.29;143979.44;1853511;77;22566;-64
2021/11/02 01:14:17;;;;;;;79.20;49.05;;;;;;;6.99;93.34;143976.91;1834898;77;22125;-60
2021/11/02 01:16:52;;;;;;;81.30;53.78;;;;;;;6.99;93.49;143978.16;1837748;77;28299;-58
2021/11/02 01:19:47;;;;;;;84.72;54.15;;;;;;;7.07;93.45;143996.91;1835005;77;22157;-60
2021/11/02 01:22:43;;;;;;;79.25;48.73;;;;;;;7.02;93.42;143985.69;1834868;77;22165;-60
2021/11/02 01:25:21;;;;;;;88.37;53.73;;;;;;;6.98;93.70;143975.66;1834930;77;22558;-58
2021/11/02 01:28:02;;;;;;;78.70;48.17;;;;;;;6.96;93.95;143971.89;1834324;77;22587;-60
2021/11/02 01:30:38;;;;;;;82.30;52.62;;;;;;;6.98;93.93;143974.42;1811407;77;28100;-58
2021/11/02 01:33:32;;;;;;;72.08;47.17;;;;;;;7.02;93.94;143985.69;1853412;77;22131;-57
2021/11/02 01:36:10;;;;;;;86.40;54.15;;;;;;;7.02;93.91;143985.69;1834950;77;22583;-59
2021/11/02 01:38:46;;;;;;;89.05;53.63;;;;;;;7.01;93.90;143983.16;1834950;77;22156;-57
2021/11/02 01:41:25;;;;;;;79.87;49.73;;;;;;;6.99;94.00;143976.91;1853489;77;22143;-61
2021/11/02 01:44:16;;;;;;;73.70;50.50;;;;;;;6.93;94.26;143963.16;1819325;77;28008;-61
2021/11/02 01:46:51;;;;;;;75.90;49.13;;;;;;;6.94;94.40;143966.87;1853474;77;22120;-58
2021/11/02 01:49:47;;;;;;;85.22;54.48;;;;;;;6.91;94.63;143959.39;1834929;77;22555;-59
2021/11/02 01:52:42;;;;;;;79.20;50.12;;;;;;;6.90;94.79;143955.67;1834898;77;22132;-63
2021/11/02 01:55:17;;;;;;;81.35;49.27;;;;;;;6.88;95.11;143950.66;1834947;77;22128;-60
2021/11/02 01:58:13;;;;;;;83.90;51.50;;;;;;;6.85;95.25;143943.16;1853435;77;22124;-61
2021/11/02 02:00:53;;;;;;;86.50;52.00;;;;;;;6.86;95.50;143945.64;1834950;77;22121;-61
2021/11/02 02:03:51;;;;;;;83.87;50.78;;;;;;;6.86;95.56;143945.64;1853446;77;22587;-60
2021/11/02 02:06:49;;;;;;;81.90;50.17;;;;;;;6.88;95.75;143950.66;1853496;77;22155;-61
2021/11/02 02:09:55;;;;;;;85.70;49.70;;;;;;;6.90;95.87;143955.67;1853481;77;22156;-59
2021/11/02 02:12:48;;;;;;;80.20;51.00;;;;;;;6.93;96.05;143963.16;1853426;77;22152;-61
2021/11/02 02:15:46;;;;;;;84.85;49.53;;;;;;;6.90;96.09;143956.91;1835023;77;22125;-62
2021/11/02 02:18:51;;;;;;;83.90;50.15;;;;;;;6.86;96.26;143946.88;1834869;77;22156;-61
2021/11/02 02:21:49;;;;;;;83.50;51.90;;;;;;;6.85;96.55;143943.16;1853480;77;22127;-57
2021/11/02 02:24:51;;;;;;;86.00;54.65;;;;;;;6.82;96.72;143935.63;1853481;77;22615;-57
2021/11/02 02:27:31;;;;;;;84.17;51.15;;;;;;;6.86;96.86;143945.64;1853442;77;22594;-63
2021/11/02 02:30:14;;;;;;;80.62;49.93;;;;;;;6.79;96.95;143929.37;1834893;77;22128;-62
2021/11/02 02:33:10;;;;;;;81.02;52.78;;;;;;;6.72;97.38;143913.16;1834913;77;22156;-56
2021/11/02 02:35:46;;;;;;;84.10;52.15;;;;;;;6.71;97.57;143909.38;1853470;77;22159;-56
2021/11/02 02:38:45;;;;;;;82.33;50.63;;;;;;;6.72;97.81;143911.91;1834917;77;22129;-60
2021/11/02 02:41:43;;;;;;;86.37;50.78;;;;;;;6.76;98.00;143921.88;1853418;77;22151;-59
2021/11/02 02:44:19;;;;;;;80.20;48.68;;;;;;;6.81;98.02;143934.38;1853471;77;22151;-63
2021/11/02 02:47:18;;;;;;;83.72;55.98;;;;;;;6.84;98.03;143940.63;1837664;77;28440;-61
2021/11/02 02:49:57;;;;;;;81.53;51.50;;;;;;;6.91;98.09;143958.16;1834748;77;22615;-61
2021/11/02 02:52:34;;;;;;;78.65;50.08;;;;;;;6.95;97.97;143969.41;1843486;78;22132;-61
2021/11/02 02:55:09;;;;;;;80.20;53.15;;;;;;;6.95;98.03;143969.41;1834969;77;20438;-59
2021/11/02 02:57:47;;;;;;;81.02;50.48;;;;;;;6.97;98.12;143973.13;1834889;77;22144;-60
2021/11/02 03:00:43;;;;;;;81.30;53.60;;;;;;;6.98;98.08;143975.66;1819375;77;28016;-57
2021/11/02 03:03:19;;;;;;;78.12;50.95;;;;;;;7.04;98.08;143989.41;1834969;77;22125;-59
2021/11/02 03:06:21;;;;;;;87.75;54.08;;;;;;;7.00;98.16;143980.67;1853484;77;22124;-58
2021/11/02 03:08:58;;;;;;;78.15;51.25;;;;;;;7.01;98.37;143983.16;1834998;77;22180;-60
2021/11/02 03:11:34;;;;;;;88.82;51.60;;;;;;;7.07;98.35;143998.19;1834876;77;22140;-59
2021/11/02 03:14:14;;;;;;;80.87;49.33;;;;;;;7.05;98.01;143993.19;1834953;77;22125;-58
2021/11/02 03:56:47;;;;;;;73.62;49.88;;;;;;;6.69;100.00;143905.66;1837735;77;28434;-63
2021/11/02 05:52:30;;;;;;;90.03;55.78;;;;;;;6.24;100.00;143795.64;1834834;77;22124;-60
2021/11/02 05:58:26;;;;;;;88.78;52.98;;;;;;;6.27;100.00;143803.13;1834957;77;22618;-58
2021/11/02 06:06:56;;;;;;;92.88;54.63;;;;;;;6.25;100.00;143798.13;1834771;77;22157;-58
2021/11/02 06:09:40;;;;;;;92.02;54.15;;;;;;;6.23;100.00;143793.16;1834813;77;22156;-58
2021/11/02 06:30:51;;;;;;;89.00;57.88;;;;;;;6.30;100.00;143810.63;1801642;77;28216;-60
2021/11/02 06:51:29;;;;;;;90.42;54.23;;;;;;;6.58;100.00;143878.13;1834942;77;22160;-61
2021/11/02 07:15:40;;;;;;;88.22;53.28;;;;;;;6.61;100.00;143885.61;1834916;77;22129;-61
2021/11/02 07:18:32;;;;;;;97.50;53.85;;;;;;;6.60;100.00;143881.89;1853446;77;22240;-60
2021/11/02 07:24:43;;;;;;;84.45;52.33;;;;;;;6.64;100.00;143891.86;1834999;77;22550;-61
2021/11/02 08:48:02;;;;;;;58.52;33.95;;;;;;;7.51;100.00;144105.75;1834818;77;22582;-61
2021/11/02 08:50:50;;;;;;;59.90;35.23;;;;;;;7.52;100.00;144108.23;1834055;77;22196;-58
2021/11/02 08:53:22;;;;;;;51.48;33.05;;;;;;;7.52;100.00;144108.23;1835063;77;22164;-60
2021/11/02 08:55:57;;;;;;;59.13;34.50;;;;;;;7.50;100.00;144103.22;1834832;77;22160;-61
2021/11/02 08:58:32;;;;;;;51.45;31.80;;;;;;;7.43;100.00;144085.75;1834717;77;22598;-60
2021/11/02 09:01:31;;;;;;;63.17;32.50;;;;;;;7.41;100.00;144079.48;1853391;77;22603;-61
2021/11/02 09:04:09;;;;;;;56.70;35.63;;;;;;;7.34;100.00;144063.22;1834917;77;22157;-60
2021/11/02 09:07:22;;;;;;;62.55;34.48;;;;;;;7.34;100.00;144063.22;1833902;77;22236;-59
2021/11/02 09:10:20;;;;;;;64.25;37.75;;;;;;;7.39;100.00;144075.72;1838229;77;22304;-62
2021/11/02 09:13:10;;;;;;;69.05;38.63;;;;;;;7.45;100.00;144089.47;1853496;77;22160;-59
2021/11/02 09:16:10;;;;;;;57.03;34.15;;;;;;;7.44;100.00;144088.23;1834114;77;22160;-59
2021/11/02 09:19:08;;;;;;;58.02;35.48;;;;;;;7.40;100.00;144078.20;1837567;77;28491;-60
2021/11/02 09:22:06;;;;;;;57.73;33.78;;;;;;;7.42;100.00;144083.22;1834873;77;22164;-60
2021/11/02 09:25:08;;;;;;;53.95;28.92;;;;;;;7.39;100.00;144075.72;1834026;77;22578;-59
2021/11/02 09:27:50;;;;;;;54.75;31.50;;;;;;;7.31;100.00;144055.72;1853357;77;22159;-59
2021/11/02 09:30:31;;;;;;;50.85;30.82;;;;;;;7.32;100.00;144058.20;1834122;77;22160;-59
2021/11/02 09:33:27;;;;;;;48.70;29.52;;;;;;;7.37;100.00;144070.70;1834831;77;20365;-59
2021/11/02 09:36:08;;;;;;;51.65;30.00;;;;;;;7.47;100.00;144095.72;1834677;77;22167;-63
2021/11/02 09:39:05;;;;;;;56.92;29.02;;;;;;;7.57;100.00;144119.50;1820136;77;22217;-59
2021/11/02 09:42:36;;;;;;;55.88;31.25;;;;;;;7.63;100.00;144133.25;1819067;77;28461;-64
2021/11/02 09:45:31;;;;;;;44.25;28.00;;;;;;;7.70;100.00;144152.03;1823815;77;22152;-62
2021/11/02 09:48:54;;;;;;;37.55;25.30;;;;;;;7.72;100.00;144155.80;1834540;77;22156;-60
2021/11/02 09:51:41;;;;;;;42.45;26.30;;;;;;;7.72;100.00;144155.80;1828921;77;22164;-62
2021/11/02 09:54:52;;;;;;;38.05;24.92;;;;;;;7.73;100.00;144158.28;1833826;77;22722;-60
2021/11/02 09:58:16;;;;;;;39.27;24.95;;;;;;;7.71;100.00;144153.27;1815873;77;22307;-58
2021/11/02 10:01:20;;;;;;;38.17;23.55;;;;;;;7.75;100.00;144164.53;1817494;77;22192;-61
2021/11/02 10:04:43;;;;;;;35.73;24.47;;;;;;;7.81;100.00;144179.58;1853378;77;22211;-62
2021/11/02 10:07:36;;;;;;;37.45;21.60;;;;;;;7.83;100.00;144184.55;1834558;77;22618;-59
2021/11/02 10:10:22;;;;;;;38.38;23.32;;;;;;;7.91;100.00;144203.38;1834437;77;22176;-60
2021/11/02 10:13:24;;;;;;;32.50;23.95;;;;;;;7.97;100.00;144218.38;1837450;77;28017;-61
2021/11/02 10:16:06;;;;;;;32.42;22.60;;;;;;;8.09;100.00;144247.17;1834590;77;22168;-61
2021/11/02 10:19:13;;;;;;;35.63;21.62;;;;;;;8.16;100.00;144263.42;1834616;77;22172;-60
2021/11/02 10:22:29;;;;;;;33.90;22.00;;;;;;;8.18;99.69;144268.44;1834529;77;22168;-59
2021/11/02 10:25:26;;;;;;;31.40;22.55;;;;;;;8.20;99.60;144273.45;1808033;77;28191;-61
2021/11/02 10:28:47;;;;;;;29.77;19.77;;;;;;;8.24;99.60;144284.72;1820413;77;22646;-60
2021/11/02 10:31:39;;;;;;;27.67;19.35;;;;;;;8.25;99.34;144285.97;1853005;77;22245;-62
2021/11/02 10:34:58;;;;;;;25.68;18.92;;;;;;;8.21;99.31;144275.94;1833733;77;22188;-62
2021/11/02 10:37:46;;;;;;;30.85;19.92;;;;;;;8.19;99.33;144270.92;1852987;77;22686;-62
2021/11/02 10:40:34;;;;;;;25.43;18.37;;;;;;;8.13;99.51;144257.16;1834358;77;22157;-59
2021/11/02 10:43:48;;;;;;;28.23;20.45;;;;;;;8.07;99.69;144242.16;1833723;77;22685;-60
2021/11/02 10:46:33;;;;;;;26.48;19.17;;;;;;;8.01;100.00;144228.41;1842791;78;22160;-62
2021/11/02 10:49:55;;;;;;;27.25;22.25;;;;;;;7.99;100.00;144223.38;1834397;77;22187;-62
2021/11/02 10:52:39;;;;;;;30.08;21.73;;;;;;;8.07;100.00;144240.91;1833801;77;22219;-62
2021/11/02 10:55:41;;;;;;;32.73;21.73;;;;;;;8.11;100.00;144252.14;1834535;77;22697;-60
2021/11/02 10:58:44;;;;;;;31.30;22.35;;;;;;;8.15;100.00;144260.94;1834593;77;22172;-62
2021/11/02 11:01:23;;;;;;;32.08;22.22;;;;;;;8.18;100.00;144269.67;1834521;77;22161;-63
2021/11/02 11:04:19;;;;;;;29.90;20.50;;;;;;;8.20;100.00;144273.45;1828546;77;22192;-61
2021/11/02 11:06:55;;;;;;;28.00;19.87;;;;;;;8.19;100.00;144270.92;1809305;77;22254;-58
2021/11/02 11:09:31;;;;;;;24.25;17.55;;;;;;;8.18;100.00;144268.44;1830876;77;22231;-59
2021/11/02 11:12:10;;;;;;;23.77;17.27;;;;;;;8.16;100.00;144263.42;1816779;77;22571;-59
2021/11/02 11:14:54;;;;;;;23.85;16.90;;;;;;;8.17;100.00;144267.19;1816069;77;22220;-63
2021/11/02 11:18:04;;;;;;;24.32;17.98;;;;;;;8.22;100.00;144279.70;1829895;77;22218;-57
2021/11/02 11:20:55;;;;;;;28.23;19.48;;;;;;;8.20;100.00;144274.69;1817235;77;22686;-60
2021/11/02 11:23:34;;;;;;;24.95;18.42;;;;;;;8.21;100.00;144275.94;1818886;77;22236;-59
2021/11/02 11:26:09;;;;;;;22.25;16.55;;;;;;;8.20;100.00;144273.45;1818106;77;22219;-58
2021/11/02 11:28:47;;;;;;;23.83;15.85;;;;;;;8.16;100.00;144263.42;1819264;77;22183;-62
2021/11/02 11:31:28;;;;;;;23.67;17.12;;;;;;;8.14;100.00;144259.69;1815472;77;22187;-59
2021/11/02 11:34:04;;;;;;;29.45;17.02;;;;;;;8.07;100.00;144242.16;1819046;77;22585;-61
2021/11/02 11:36:43;;;;;;;20.55;16.00;;;;;;;8.08;100.00;144243.41;1802527;77;28499;-61
2021/11/02 11:39:22;;;;;;;20.12;13.83;;;;;;;8.15;100.00;144260.94;1820133;77;22175;-60
2021/11/02 11:41:59;;;;;;;20.75;14.63;;;;;;;8.12;100.00;144254.67;1800522;79;22187;-59
2021/11/02 11:45:13;;;;;;;20.40;14.35;;;;;;;8.12;100.00;144253.44;1834108;77;22184;-58
2021/11/02 11:48:14;;;;;;;21.65;13.90;;;;;;;8.12;100.00;144253.44;1821021;77;22162;-57
2021/11/02 11:51:03;;;;;;;19.35;13.35;;;;;;;8.13;100.00;144257.16;1817368;77;22232;-58
2021/11/02 11:54:06;;;;;;;19.65;13.50;;;;;;;8.16;100.00;144264.66;1852736;77;22614;-55
2021/11/02 11:57:01;;;;;;;19.00;14.03;;;;;;;8.17;100.00;144267.19;1825434;77;22167;-59
2021/11/02 11:59:36;;;;;;;20.80;15.23;;;;;;;8.19;100.00;144270.92;1815588;79;22183;-60
2021/11/02 12:02:28;;;;;;;20.62;14.33;;;;;;;8.18;100.00;144268.44;1853434;77;22582;-57
2021/11/02 12:05:17;;;;;;;16.60;13.13;;;;;;;8.15;100.00;144260.94;1846770;77;22171;-57
2021/11/02 12:08:28;;;;;;;19.95;14.15;;;;;;;8.15;100.00;144260.94;1809549;77;22245;-59
2021/11/02 12:11:13;;;;;;;17.67;13.03;;;;;;;8.15;100.00;144260.94;1834740;77;22173;-58
2021/11/02 12:13:53;;;;;;;20.17;13.78;;;;;;;8.13;100.00;144255.92;1853330;77;22152;-59
2021/11/02 12:16:36;;;;;;;24.75;14.33;;;;;;;8.12;100.00;144253.44;1817962;77;22192;-57
2021/11/02 12:19:51;;;;;;;22.60;14.20;;;;;;;8.07;100.00;144242.16;1825328;77;22230;-57
2021/11/02 12:22:53;;;;;;;19.80;13.55;;;;;;;7.96;100.00;144215.89;1853444;77;22124;-57
2021/11/02 12:25:55;;;;;;;17.65;13.50;;;;;;;7.85;100.00;144188.33;1818407;77;28049;-57
2021/11/02 12:28:45;;;;;;;17.12;13.28;;;;;;;7.91;100.00;144203.38;1853458;77;22152;-60
2021/11/02 12:31:48;;;;;;;20.85;14.15;;;;;;;8.00;100.00;144225.88;1849886;77;22328;-60
2021/11/02 12:34:42;;;;;;;20.08;13.68;;;;;;;8.00;100.00;144224.63;1833319;77;22603;-56
2021/11/02 12:37:54;;;;;;;18.70;13.22;;;;;;;8.00;100.00;144225.88;1851484;77;22610;-59
2021/11/02 12:40:42;;;;;;;19.60;13.25;;;;;;;7.89;100.00;144198.36;1815356;77;22231;-60
2021/11/02 12:43:43;;;;;;;19.07;13.62;;;;;;;7.75;100.00;144163.30;1816854;77;22176;-59
2021/11/02 12:46:41;;;;;;;19.00;12.60;;;;;;;7.72;100.00;144155.80;1837383;77;22143;-57
2021/11/02 12:49:58;;;;;;;20.02;13.22;;;;;;;7.76;100.00;144165.78;1817329;77;22629;-60
2021/11/02 12:52:43;;;;;;;22.37;13.40;;;;;;;7.77;100.00;144168.31;1817355;77;22156;-59
2021/11/02 12:55:23;;;;;;;18.07;12.85;;;;;;;7.75;100.00;144164.53;1819432;77;22172;-61
2021/11/02 12:58:14;;;;;;;24.43;14.45;;;;;;;7.74;100.00;144160.81;1817148;77;22176;-59
2021/11/02 13:00:53;;;;;;;20.17;13.55;;;;;;;7.73;100.00;144158.28;1831052;77;22183;-60
2021/11/02 13:03:40;;;;;;;18.65;13.90;;;;;;;7.76;100.00;144167.06;1829913;77;22199;-60
2021/11/02 13:06:16;;;;;;;22.27;14.38;;;;;;;7.74;100.00;144160.81;1820195;77;22211;-60
2021/11/02 13:09:17;;;;;;;21.00;13.98;;;;;;;7.76;100.00;144167.06;1831203;77;22171;-60
2021/11/02 13:12:10;;;;;;;23.35;14.70;;;;;;;7.80;100.00;144175.81;1815143;77;22149;-60
2021/11/02 13:15:10;;;;;;;21.17;15.08;;;;;;;7.84;100.00;144185.84;1818014;77;22220;-57
2021/11/02 13:18:02;;;;;;;24.82;15.20;;;;;;;7.81;100.00;144178.30;1818348;77;22168;-58
2021/11/02 13:21:09;;;;;;;22.62;14.33;;;;;;;7.82;100.00;144180.83;1820579;77;22196;-58
2021/11/02 13:24:17;;;;;;;23.85;16.40;;;;;;;7.81;100.00;144178.30;1817147;77;22191;-57
2021/11/02 13:26:58;;;;;;;25.75;14.98;;;;;;;7.78;100.00;144172.03;1816161;77;22179;-59
2021/11/02 13:29:53;;;;;;;28.12;15.15;;;;;;;7.83;100.00;144183.31;1820941;77;23395;-61
2021/11/02 13:32:28;;;;;;;51.13;17.05;;;;;;;7.79;100.00;144173.33;1829857;77;22156;-59
2021/11/02 13:35:56;;;;;;;21.90;14.23;;;;;;;7.85;100.00;144187.08;1818096;77;22176;-58
2021/11/02 13:38:42;;;;;;;26.48;15.80;;;;;;;7.80;100.00;144177.05;1817942;77;22172;-59
2021/11/02 13:41:22;;;;;;;30.35;15.83;;;;;;;7.79;100.00;144173.33;1817451;77;22132;-60
2021/11/02 13:44:09;;;;;;;24.57;14.73;;;;;;;7.76;100.00;144167.06;1820260;77;22175;-60
